To NAV CANADA Home Page Login to a new session Search on AWWS site Feedback and Comments Disclaimer Vers la page française équivalente Tips FAQ What's new on the site To the Forecasts and Observations / NOTAM section To "File a Flight Plan" website Publications and other links Update of the User's profile FIC Telephone Numbers My Weather Data Folder Route Weather Data Regional Weather Data Local Weather Data To the Forecasts and Observations / NOTAM section
Request Generated 05/06/2016 at 05:30:59 UTC . Weather information available at that time is displayed.

METAR/TAF

BAKER LAKE/NU    

METAR CYBK 060500Z 15005KT 15SM OVC013 M04/M06 A2999 RMK ST8 SLP160=
METAR CYBK 060400Z 00000KT 20SM OVC012 M04/M06 A2999 RMK ST8 SLP161=
METAR CYBK 060300Z 11002KT 20SM OVC014 M04/M06 A3000 RMK ST8 SC ASCTD
SLP164=

TAF AMD CYBK 060217Z 0602/0612 VRB03KT P6SM SCT006 OVC012 TEMPO
0602/0612 OVC006
BECMG 0608/0610 06006KT
RMK NXT FCST BY 060600Z=
Your time UTC time
Weather data provided by Environment Canada and NAV CANADA